• Join FlightAware (Why Join?)
  • Login
  • US Flag 
11:39AM EDT


 

Airport Tracker/Info


-or-


 

Live Flight TrackerFlight Track Log ✈ SKW4717 ✈ 29-Apr-2013 ✈ KSLC - KSMF

Flight Track Log - Related Links

Times and Time Zones

All times are in EDT time to prevent confusion due to time zone crossing. See the SKW4717 flight status page for this flight to view local times or setup timezone preferences in your user account.

Time Position Orientation Groundspeed Altitude Reporting Facility
EDT Latitude Longitude Course Direction KTS MPH feet Rate Location/Type
07:16PM 40.8386 -112.0289 258° West 211 243 6,200  Level Salt Lake Center
07:17PM 40.8617 -112.1139 290° West 244 281 7,700 2,040 Climbing Salt Lake Center
07:18PM 40.8889 -112.2086 291° West 271 312 10,400 2,580 Climbing Salt Lake Center
07:19PM 40.8642 -112.4532 261° West  Level FlightAware Approximate
07:19PM 40.8814 -112.3056 264° West 265 305 13,000  Level Salt Lake Center
07:20PM 40.8500 -112.5900 270° West  Level FlightAware Approximate
07:20PM 40.8742 -112.4022 264° West 265 305 14,900  Level Salt Lake Center
07:21PM 40.8373 -112.7264 258° West  Level FlightAware Approximate
07:21PM 40.8672 -112.5022 265° West 272 313 17,100  Level Salt Lake Center
07:22PM 40.8606 -112.6022 265° West 275 316 18,500 1,380 Climbing Salt Lake Center
07:23PM 40.8525 -112.7053 264° West 284 327 20,000 1,560 Climbing Salt Lake Center
07:24PM 40.8419 -112.8328 264° West 293 337 21,700 1,440 Climbing Salt Lake Center
07:25PM 40.8428 -112.9428 271° West 302 348 23,000 1,140 Climbing Salt Lake Center
07:26PM 40.8422 -113.0500 270° West 295 339 24,100 960 Climbing Salt Lake Center
07:27PM 40.8439 -113.1622 271° West 305 351 25,000 840 Climbing Salt Lake Center
07:28PM 40.8436 -113.2772 270° West 313 360 25,900 2,400 Climbing Salt Lake Center
07:29PM 40.8425 -113.3917 269° West 312 359 30,000 840 Climbing Salt Lake Center
07:30PM 40.8425 -113.5089 270° West 318 366 27,700 -720 Descending Salt Lake Center
07:31PM 40.8431 -113.6272 270° West 321 369 28,600 720 Climbing Salt Lake Center
07:32PM 40.8431 -113.7461 270° West 323 372 29,200 480 Climbing Salt Lake Center
07:33PM 40.8403 -113.8928 269° West 332 382 29,700 420 Climbing Salt Lake Center
07:35PM 40.8408 -114.0178 270° West 339 390 30,100 360 Climbing Salt Lake Center
07:36PM 40.8403 -114.1442 270° West 343 395 30,500 480 Climbing Salt Lake Center
07:37PM 40.8392 -114.2736 269° West 351 404 31,100 540 Climbing Salt Lake Center
07:38PM 40.8375 -114.4044 269° West 356 410 31,700 420 Climbing Salt Lake Center
07:39PM 40.8364 -114.5317 269° West 352 405 32,000 120 Climbing Salt Lake Center
07:40PM 40.8333 -114.6817 269° West 361 415 32,000  Level Salt Lake Center
07:41PM 40.8261 -114.8128 266° West 371 427 32,000  Level Salt Lake Center
07:42PM 40.8094 -114.9647 262° West 374 430 32,000  Level Salt Lake Center
07:43PM 40.7950 -115.0881 261° West 361 415 32,000  Level Salt Lake Center
07:44PM 40.7794 -115.2097 260° West 354 407 32,000  Level Salt Lake Center
07:45PM 40.7639 -115.3467 262° West 341 392 32,000  Level Salt Lake Center
07:46PM 40.7489 -115.4636 260° West 338 389 32,000  Level Salt Lake Center
07:47PM 40.7356 -115.5994 263° West 335 386 32,000  Level Salt Lake Center
07:48PM 40.7206 -115.7169 260° West 339 390 32,000  Level Salt Lake Center
07:49PM 40.7033 -115.8583 261° West 346 398 32,000  Level Salt Lake Center
07:50PM 40.6889 -115.9778 261° West 347 399 32,000  Level Salt Lake Center
07:51PM 40.6742 -116.0989 261° West 349 402 32,000  Level Salt Lake Center
07:52PM 40.6567 -116.2403 261° West 351 404 32,000  Level Salt Lake Center
07:53PM 40.6406 -116.3619 260° West 352 405 32,000  Level Salt Lake Center
07:54PM 40.6231 -116.5072 261° West 359 413 32,000  Level Salt Lake Center
07:55PM 40.6072 -116.6292 260° West 356 410 32,000  Level Salt Lake Center
07:56PM 40.5883 -116.7708 260° West 355 409 32,000  Level Salt Lake Center
07:57PM 40.5736 -116.8900 261° West 351 404 32,000  Level Salt Lake Center
07:58PM 40.5425 -117.0258 253° West 353 406 32,000  Level Salt Lake Center
07:59PM 40.5117 -117.1414 251° West 355 409 32,000  Level Salt Lake Center
08:00PM 40.4758 -117.2769 251° West 354 407 32,000  Level Salt Lake Center
08:01PM 40.4453 -117.3933 251° West 354 407 32,000  Level Salt Lake Center
08:02PM 40.4153 -117.5108 251° West 356 410 32,000  Level Salt Lake Center
08:03PM 40.3772 -117.6475 250° West 358 412 32,000  Level Salt Lake Center
08:03PM 40.3728 -117.6661 253° West 355 409 32,000  Level Oakland Center
08:04PM 40.3469 -117.7642 251° West 354 407 32,000  Level Salt Lake Center
08:06PM 40.3050 -117.9208 251° West 356 410 32,000  Level Oakland Center
08:07PM 40.2706 -118.0472 250° West 356 410 32,000  Level Oakland Center
08:08PM 40.2369 -118.1689 250° West 356 410 32,000  Level Oakland Center
08:09PM 40.2039 -118.2900 250° West 355 409 32,000  Level Oakland Center
08:10PM 40.1703 -118.4119 250° West 356 410 32,000  Level Oakland Center
08:11PM 40.1369 -118.5325 250° West 354 407 32,000  Level Oakland Center
08:12PM 40.0842 -118.6736 244° Southwest 366 421 32,000  Level Oakland Center
08:13PM 40.0358 -118.7911 242° Southwest 368 423 32,000  Level Oakland Center
08:14PM 39.9856 -118.9061 240° Southwest 368 423 32,000  Level Oakland Center
08:15PM 39.9367 -119.0222 241° Southwest 367 422 32,000  Level Oakland Center
08:16PM 39.8872 -119.1375 241° Southwest 368 423 32,000  Level Oakland Center
08:17PM 39.8378 -119.2528 241° Southwest 368 423 32,000  Level Oakland Center
08:18PM 39.7878 -119.3669 240° Southwest 365 420 32,000  Level Oakland Center
08:19PM 39.7378 -119.4833 241° Southwest 369 425 32,000 -420 Level Oakland Center
08:20PM 39.6922 -119.5964 242° Southwest 359 413 31,200 -1,020 Descending Oakland Center
08:21PM 39.6289 -119.7400 240° Southwest 381 438 30,000 -900 Descending Oakland Center
08:22PM 39.5778 -119.8575 241° Southwest 373 429 29,400 -840 Descending Oakland Center
08:23PM 39.5250 -119.9758 240° Southwest 378 435 28,400 -1,020 Descending Oakland Center
08:24PM 39.4744 -120.0944 241° Southwest 377 434 27,400 -1,020 Descending Oakland Center
08:25PM 39.4250 -120.2011 239° Southwest 372 428 26,400 -1,320 Descending Oakland Center
08:26PM 39.3781 -120.3092 241° Southwest 350 403 24,800 -1,500 Descending Oakland Center
08:27PM 39.3319 -120.4131 240° Southwest 337 388 23,400 -1,620 Descending Oakland Center
08:28PM 39.2742 -120.5406 240° Southwest 343 395 21,600 -1,680 Descending Oakland Center
08:29PM 39.2278 -120.6469 241° Southwest 344 396 20,000 -1,560 Descending Oakland Center
08:30PM 39.1831 -120.7461 240° Southwest 329 379 18,500 -1,620 Descending Oakland Center
08:31PM 39.1394 -120.8419 240° Southwest 316 364 16,800 -1,620 Descending Oakland Center
08:32PM 39.0969 -120.9347 239° Southwest 307 353 15,300 -1,500 Descending Oakland Center
08:33PM 39.0556 -121.0272 240° Southwest 301 346 13,800 -1,500 Descending Oakland Center
08:34PM 39.0142 -121.1175 239° Southwest 297 342 12,300 -1,620 Descending Oakland Center
08:35PM 38.9833 -121.1833 239° Southwest 293 337 11,300 -1,860 Descending Northern Cal TRACON
08:36PM 38.9667 -121.2833 258° West 284 327 9,500 -1,860 Descending Northern Cal TRACON
08:37PM 38.9667 -121.3667 270° West 276 318 7,800 -1,980 Descending Northern Cal TRACON
08:38PM 38.9333 -121.4667 247° West 269 310 5,600 -1,800 Descending Northern Cal TRACON
08:39PM 38.9000 -121.5333 237° Southwest 262 302 4,200 -1,320 Descending Northern Cal TRACON
08:40PM 38.8667 -121.6167 243° Southwest 248 285 3,000 -720 Descending Northern Cal TRACON
08:40PM 38.8506 -121.6619 245° Southwest 257 296 3,000  Level Oakland Center
08:41PM 38.7872 -121.6747 189° South 251 289 3,000  Level Oakland Center
08:42PM 38.7258 -121.6644 173° South 231 266 3,000  Level Oakland Center
08:43PM 38.6650 -121.6522 171° South 225 259 3,000  Level Oakland Center
08:44PM 38.6078 -121.6392 170° South 215 247 3,000 -120 Level Oakland Center
08:45PM 38.5833 -121.6167 144° Southeast 213 245 2,900 -1,080 Descending Northern Cal TRACON
08:46PM 38.6167 -121.5833 38° Northeast 174 200 1,700 -1,200 Descending Northern Cal TRACON
08:47PM 38.6667 -121.5833 360° North 129 148 500 -1,140 Descending Northern Cal TRACON